Time;durP1;ratioP1;P1;durP2;ratioP2;P2;SDS_P1;SDS_P2;PMS_P1;PMS_P2;Temp;Humidity;BMP_temperature;BMP_pressure;BME280_temperature;BME280_humidity;BME280_pressure;Samples;Min_cycle;Max_cycle;Signal;HPM_P1;HPM_P2
2024/02/01 00:01:36;;;;;;;10.75;6.50;;;;;;;5.40;100.00;98556.50;5049173;28;20403;-77
2024/02/01 00:04:03;;;;;;;17.98;7.97;;;;;;;5.48;100.00;98559.00;5042026;28;20406;-78
2024/02/01 00:06:29;;;;;;;18.05;8.27;;;;;;;5.57;100.00;98549.97;5036373;28;20479;-78
2024/02/01 00:08:55;;;;;;;13.82;7.57;;;;;;;5.64;100.00;98545.56;5036910;28;20419;-78
2024/02/01 00:11:22;;;;;;;12.35;6.90;;;;;;;5.70;100.00;98547.44;5035145;28;20831;-78
2024/02/01 00:13:48;;;;;;;15.48;7.50;;;;;;;5.75;100.00;98545.06;5037437;28;20474;-78
2024/02/01 00:16:20;;;;;;;14.65;7.57;;;;;;;5.78;100.00;98547.31;5038236;28;20461;-80
2024/02/01 00:18:47;;;;;;;13.27;7.28;;;;;;;5.81;100.00;98544.28;5038102;28;20411;-79
2024/02/01 00:21:17;;;;;;;11.90;6.95;;;;;;;5.84;100.00;98535.22;5037823;28;20422;-79
2024/02/01 00:23:43;;;;;;;13.40;7.28;;;;;;;5.88;100.00;98544.34;5038389;28;20395;-78
2024/02/01 00:26:10;;;;;;;12.32;5.90;;;;;;;5.90;100.00;98536.28;5037717;28;20410;-79
2024/02/01 00:28:36;;;;;;;12.65;6.07;;;;;;;5.93;100.00;98528.03;5037962;28;20423;-80
2024/02/01 00:31:03;;;;;;;14.07;6.43;;;;;;;5.94;100.00;98535.69;5049866;28;20407;-81
2024/02/01 00:33:29;;;;;;;9.60;5.82;;;;;;;5.98;100.00;98536.13;5039742;28;20410;-81
2024/02/01 00:35:55;;;;;;;11.05;5.93;;;;;;;5.99;100.00;98532.50;5037658;28;20414;-80
2024/02/01 00:38:23;;;;;;;11.00;6.07;;;;;;;6.02;100.00;98534.72;5039325;28;20410;-81
2024/02/01 00:40:49;;;;;;;9.80;5.47;;;;;;;6.04;100.00;98532.72;5038430;28;20406;-80
2024/02/01 00:43:15;;;;;;;9.05;5.40;;;;;;;6.08;100.00;98526.09;5038288;28;20402;-80
2024/02/01 00:45:41;;;;;;;7.97;4.93;;;;;;;6.11;100.00;98537.00;5038051;28;20447;-80
2024/02/01 00:48:08;;;;;;;8.10;5.07;;;;;;;6.12;100.00;98528.13;5038853;28;20765;-80
2024/02/01 00:50:34;;;;;;;11.05;5.50;;;;;;;6.15;100.00;98529.56;5038309;28;20434;-80
2024/02/01 00:53:00;;;;;;;9.50;4.90;;;;;;;6.17;100.00;98540.66;5038300;28;20725;-80
2024/02/01 00:55:27;;;;;;;7.53;4.88;;;;;;;6.17;100.00;98530.97;5036756;28;20411;-80
2024/02/01 00:57:54;;;;;;;8.87;4.77;;;;;;;6.16;100.00;98526.72;5037226;28;20494;-80
2024/02/01 01:00:20;;;;;;;8.25;4.75;;;;;;;6.15;100.00;98517.22;5037966;28;20399;-80
2024/02/01 01:02:46;;;;;;;6.70;4.32;;;;;;;6.10;100.00;98519.63;5037355;28;20414;-80
2024/02/01 01:05:12;;;;;;;11.20;5.28;;;;;;;6.04;100.00;98530.91;5037446;28;20399;-80
2024/02/01 01:07:38;;;;;;;9.00;4.85;;;;;;;5.97;100.00;98531.88;5037435;28;20544;-80
2024/02/01 01:10:05;;;;;;;6.65;4.20;;;;;;;5.94;100.00;98529.66;5037498;28;20452;-80
2024/02/01 01:12:33;;;;;;;10.23;5.15;;;;;;;5.94;100.00;98538.31;5037888;28;20955;-80
2024/02/01 01:14:59;;;;;;;7.72;4.47;;;;;;;5.94;100.00;98533.06;5038567;28;20402;-80
2024/02/01 01:17:25;;;;;;;7.05;4.40;;;;;;;5.96;100.00;98538.94;5041805;28;20477;-80
2024/02/01 01:19:52;;;;;;;8.45;4.53;;;;;;;5.98;100.00;98557.16;5040462;28;20403;-80
2024/02/01 01:22:18;;;;;;;5.57;3.17;;;;;;;6.00;100.00;98560.41;5040498;28;20390;-80
2024/02/01 01:24:44;;;;;;;12.45;6.25;;;;;;;5.98;100.00;98565.03;5037309;28;20903;-80
2024/02/01 01:27:10;;;;;;;9.30;5.18;;;;;;;5.99;100.00;98548.28;5041096;28;20430;-79
2024/02/01 01:29:37;;;;;;;7.80;4.60;;;;;;;6.02;100.00;98550.50;5042217;28;20465;-80
2024/02/01 01:32:04;;;;;;;7.38;4.60;;;;;;;6.05;100.00;98564.06;5042201;28;20403;-80
2024/02/01 01:34:30;;;;;;;12.85;6.03;;;;;;;6.03;100.00;98547.69;5040512;28;20403;-80
2024/02/01 01:36:56;;;;;;;12.80;5.53;;;;;;;6.06;100.00;98551.75;5037527;28;20395;-80
2024/02/01 01:39:22;;;;;;;7.93;4.63;;;;;;;6.08;100.00;98552.38;5037329;28;20415;-80
2024/02/01 01:41:48;;;;;;;10.55;5.55;;;;;;;6.07;100.00;98556.81;5048792;28;20450;-80
2024/02/01 01:44:15;;;;;;;6.93;4.40;;;;;;;6.09;100.00;98560.03;5037765;28;20399;-80
2024/02/01 01:46:43;;;;;;;9.15;5.10;;;;;;;6.09;100.00;98543.50;5037577;28;20522;-80
2024/02/01 01:49:11;;;;;;;8.60;4.43;;;;;;;6.10;100.00;98542.47;5037019;28;20403;-80
2024/02/01 01:51:38;;;;;;;7.60;4.30;;;;;;;6.11;100.00;98550.16;5037312;28;20768;-80
2024/02/01 01:54:06;;;;;;;5.53;3.90;;;;;;;6.14;100.00;98546.34;5037716;28;20497;-80
2024/02/01 01:56:35;;;;;;;5.45;3.70;;;;;;;6.16;100.00;98562.75;5037420;28;20402;-80
2024/02/01 01:59:03;;;;;;;5.40;3.65;;;;;;;6.15;100.00;98559.28;5037608;28;20458;-80
2024/02/01 02:01:30;;;;;;;10.20;4.17;;;;;;;6.12;100.00;98556.22;5037782;28;20891;-79
2024/02/01 02:04:00;;;;;;;7.90;4.55;;;;;;;6.10;100.00;98553.78;5037024;28;20438;-80
2024/02/01 02:06:26;;;;;;;7.38;4.25;;;;;;;6.09;100.00;98554.00;5037099;28;20549;-80
2024/02/01 02:08:52;;;;;;;6.93;4.15;;;;;;;6.10;100.00;98547.72;5039810;28;20402;-80
2024/02/01 02:11:19;;;;;;;10.88;5.70;;;;;;;6.12;100.00;98545.72;5041004;28;20398;-80
2024/02/01 02:13:48;;;;;;;12.43;6.75;;;;;;;6.14;100.00;98541.09;5041890;28;20406;-81
2024/02/01 02:16:16;;;;;;;13.80;6.95;;;;;;;6.18;100.00;98540.50;5040942;28;20904;-80
2024/02/01 02:18:42;;;;;;;14.20;7.33;;;;;;;6.21;100.00;98539.28;5039964;28;20395;-80
2024/02/01 02:21:12;;;;;;;15.07;7.95;;;;;;;6.22;100.00;98536.47;5041404;28;20399;-79
2024/02/01 02:23:40;;;;;;;22.90;10.63;;;;;;;6.25;100.00;98552.84;5041689;28;20410;-79
2024/02/01 02:26:08;;;;;;;24.48;12.02;;;;;;;6.31;100.00;98547.66;5043742;28;20479;-80
2024/02/01 02:28:38;;;;;;;19.37;10.67;;;;;;;6.43;100.00;98553.16;5053683;28;20414;-78
2024/02/01 02:31:05;;;;;;;23.55;11.85;;;;;;;6.45;100.00;98551.97;5049516;28;20470;-79
2024/02/01 02:33:31;;;;;;;25.42;10.80;;;;;;;6.55;100.00;98568.16;5042506;28;20403;-80
2024/02/01 02:35:57;;;;;;;17.45;10.45;;;;;;;6.65;100.00;98569.63;5039143;28;20406;-80
2024/02/01 02:38:23;;;;;;;26.83;13.32;;;;;;;6.70;100.00;98585.63;5043300;28;20756;-81
2024/02/01 02:40:51;;;;;;;25.38;12.02;;;;;;;6.73;100.00;98593.13;5039834;28;20892;-80
2024/02/01 02:43:17;;;;;;;25.65;12.07;;;;;;;6.80;100.00;98581.63;5040117;28;20399;-80
2024/02/01 02:45:43;;;;;;;21.67;11.43;;;;;;;6.82;100.00;98569.09;5040234;28;20443;-80
2024/02/01 02:48:09;;;;;;;19.47;10.57;;;;;;;6.86;100.00;98564.22;5038461;28;20971;-81
2024/02/01 02:50:36;;;;;;;15.82;10.65;;;;;;;6.85;100.00;98555.53;5037927;28;20399;-80
2024/02/01 02:53:02;;;;;;;20.08;11.02;;;;;;;6.74;100.00;98563.19;5038210;28;20737;-80
2024/02/01 02:55:28;;;;;;;21.98;10.25;;;;;;;6.75;100.00;98559.56;5037775;28;20407;-81
2024/02/01 02:57:55;;;;;;;21.05;9.70;;;;;;;6.78;100.00;98549.44;5038097;28;20403;-80
2024/02/01 03:00:22;;;;;;;15.02;8.82;;;;;;;6.81;100.00;98545.59;5038728;28;20435;-80
2024/02/01 03:02:48;;;;;;;17.30;9.07;;;;;;;6.91;100.00;98541.59;5042362;28;20399;-78
2024/02/01 03:05:16;;;;;;;16.85;8.55;;;;;;;6.89;100.00;98537.53;5042727;28;20513;-78
2024/02/01 03:07:43;;;;;;;14.38;8.35;;;;;;;6.89;100.00;98540.97;5038473;28;20989;-79
2024/02/01 03:10:09;;;;;;;10.48;7.85;;;;;;;6.91;100.00;98530.25;5038452;28;20900;-80
2024/02/01 03:12:35;;;;;;;15.80;9.07;;;;;;;6.85;100.00;98533.66;5037933;28;20456;-81
2024/02/01 03:15:04;;;;;;;14.05;7.80;;;;;;;6.88;100.00;98530.63;5036342;28;20411;-81
2024/02/01 03:17:30;;;;;;;12.93;7.50;;;;;;;6.75;100.00;98534.06;5037350;28;20407;-79
2024/02/01 03:19:56;;;;;;;13.40;7.60;;;;;;;6.74;100.00;98523.72;5037507;28;20399;-79
2024/02/01 03:22:24;;;;;;;12.98;6.72;;;;;;;6.83;100.00;98523.34;5038169;28;20395;-79
2024/02/01 03:24:58;;;;;;;11.98;6.18;;;;;;;6.78;100.00;98517.03;5036605;28;20399;-78
2024/02/01 03:27:24;;;;;;;11.35;6.93;;;;;;;6.74;100.00;98507.94;5037141;28;20415;-79
2024/02/01 03:29:51;;;;;;;10.73;6.43;;;;;;;6.69;100.00;98507.72;5037211;28;20391;-79
2024/02/01 03:32:19;;;;;;;12.97;7.23;;;;;;;6.60;100.00;98496.56;5037086;28;20402;-79
2024/02/01 03:34:45;;;;;;;10.48;6.93;;;;;;;6.53;100.00;98498.38;5037159;28;20422;-78
2024/02/01 03:37:14;;;;;;;10.32;6.63;;;;;;;6.59;100.00;98503.66;5036991;28;20430;-81
2024/02/01 03:39:41;;;;;;;12.83;6.63;;;;;;;6.65;100.00;98498.59;5037366;28;20876;-80
2024/02/01 03:42:07;;;;;;;10.23;6.68;;;;;;;6.66;100.00;98503.66;5037521;28;20403;-79
2024/02/01 03:44:37;;;;;;;9.63;6.25;;;;;;;6.68;100.00;98504.28;5037612;28;20411;-80
2024/02/01 03:47:09;;;;;;;10.88;6.80;;;;;;;6.60;100.00;98515.78;5031068;28;20417;-80
2024/02/01 03:49:37;;;;;;;9.05;5.80;;;;;;;6.66;100.00;98511.56;5018400;28;20404;-80
2024/02/01 03:52:06;;;;;;;7.60;5.45;;;;;;;6.64;100.00;98512.75;5025414;28;20392;-80
2024/02/01 03:54:32;;;;;;;8.90;5.82;;;;;;;6.52;100.00;98518.59;5036532;28;20475;-80
2024/02/01 03:56:58;;;;;;;10.85;6.43;;;;;;;6.47;100.00;98515.72;5037884;28;20478;-79
2024/02/01 03:59:25;;;;;;;9.52;5.88;;;;;;;6.47;100.00;98520.19;5037015;28;20876;-81
2024/02/01 04:01:51;;;;;;;9.48;6.00;;;;;;;6.48;100.00;98511.28;5037197;28;20403;-79
2024/02/01 04:04:21;;;;;;;11.13;6.30;;;;;;;6.49;100.00;98520.78;5036586;28;20399;-79
2024/02/01 04:06:51;;;;;;;10.27;5.85;;;;;;;6.50;100.00;98522.44;5038722;28;20465;-80
2024/02/01 04:09:18;;;;;;;8.45;5.82;;;;;;;6.61;100.00;98522.66;5036911;28;20403;-81
2024/02/01 04:11:44;;;;;;;10.05;5.80;;;;;;;6.59;100.00;98522.06;5039652;28;20402;-81
2024/02/01 04:14:10;;;;;;;9.57;5.47;;;;;;;6.64;100.00;98515.38;5036621;28;20414;-81
2024/02/01 04:16:36;;;;;;;9.13;5.40;;;;;;;6.71;100.00;98514.38;5037059;28;20403;-81
2024/02/01 04:19:03;;;;;;;9.37;5.73;;;;;;;6.64;100.00;98505.66;5036221;28;20490;-79
2024/02/01 04:21:29;;;;;;;7.10;4.60;;;;;;;6.75;100.00;98517.44;5036200;28;20403;-78
2024/02/01 04:23:56;;;;;;;7.25;4.80;;;;;;;6.70;100.00;98519.84;5036117;28;20736;-80
2024/02/01 04:26:22;;;;;;;6.22;4.22;;;;;;;6.77;100.00;98518.03;5036228;28;20978;-81
2024/02/01 04:28:51;;;;;;;5.55;3.70;;;;;;;6.80;100.00;98523.72;5036513;28;20434;-80
2024/02/01 04:31:18;;;;;;;7.93;4.50;;;;;;;6.78;100.00;98520.47;5036047;28;20954;-80
2024/02/01 04:33:44;;;;;;;6.43;4.35;;;;;;;6.75;100.00;98517.44;5037135;28;20923;-81
2024/02/01 04:36:10;;;;;;;7.43;4.43;;;;;;;6.80;100.00;98512.41;5016829;28;20902;-80
2024/02/01 04:38:36;;;;;;;6.32;4.20;;;;;;;6.81;100.00;98514.84;5017866;28;20763;-80
2024/02/01 04:41:05;;;;;;;7.30;4.13;;;;;;;6.75;100.00;98514.81;5019584;28;20439;-79
2024/02/01 04:43:31;;;;;;;8.43;4.30;;;;;;;6.76;100.00;98511.19;5017774;28;20405;-80
2024/02/01 04:45:57;;;;;;;10.27;4.10;;;;;;;6.85;100.00;98510.78;5033715;28;20525;-80
2024/02/01 04:48:24;;;;;;;6.70;4.13;;;;;;;6.85;100.00;98494.19;5036318;28;20439;-80
2024/02/01 04:50:51;;;;;;;8.57;4.07;;;;;;;6.80;100.00;98492.16;5036872;28;20439;-80
2024/02/01 04:53:17;;;;;;;8.23;4.28;;;;;;;6.88;100.00;98501.69;5036356;28;20407;-81
2024/02/01 04:55:43;;;;;;;8.65;3.67;;;;;;;6.87;100.00;98500.88;5035879;28;20427;-81
2024/02/01 04:58:11;;;;;;;7.00;3.90;;;;;;;6.87;100.00;98497.44;5036151;28;20411;-80
2024/02/01 05:00:38;;;;;;;5.95;4.28;;;;;;;6.88;100.00;98491.97;5052024;28;20401;-80
2024/02/01 05:03:04;;;;;;;5.07;3.90;;;;;;;6.95;100.00;98491.97;5056688;28;20487;-81
2024/02/01 05:05:30;;;;;;;7.13;4.00;;;;;;;6.89;100.00;98484.88;5043333;28;20509;-81
2024/02/01 05:07:57;;;;;;;4.75;3.67;;;;;;;6.94;100.00;98482.44;5037225;28;20403;-79
2024/02/01 05:10:25;;;;;;;6.50;3.70;;;;;;;6.96;100.00;98491.78;5036250;28;20409;-78
2024/02/01 05:12:53;;;;;;;5.88;3.78;;;;;;;6.98;100.00;98492.41;5036046;28;20395;-77
2024/02/01 05:15:21;;;;;;;4.80;3.60;;;;;;;6.96;100.00;98494.41;5035698;28;20414;-81
2024/02/01 05:17:47;;;;;;;5.05;4.10;;;;;;;6.93;100.00;98494.81;5036853;28;20403;-82
2024/02/01 05:20:13;;;;;;;8.70;4.50;;;;;;;6.85;100.00;98492.34;5036795;28;20410;-81
2024/02/01 05:22:40;;;;;;;8.23;4.00;;;;;;;6.86;100.00;98487.91;5036631;28;20414;-80
2024/02/01 05:25:14;;;;;;;7.18;4.07;;;;;;;6.78;100.00;98480.19;5034853;28;20435;-79
2024/02/01 05:27:45;;;;;;;5.68;4.10;;;;;;;6.78;100.00;98486.28;5038110;28;20430;-79
2024/02/01 05:30:12;;;;;;;4.60;3.47;;;;;;;6.76;100.00;98482.25;5036570;28;20394;-80
2024/02/01 05:32:48;;;;;;;7.13;4.40;;;;;;;6.66;100.00;98485.25;5037071;28;20399;-80
2024/02/01 05:35:14;;;;;;;9.40;4.50;;;;;;;6.62;100.00;98478.75;5037704;28;20395;-80
2024/02/01 05:37:46;;;;;;;5.57;3.83;;;;;;;6.63;100.00;98469.84;5036835;28;20405;-80
2024/02/01 05:40:16;;;;;;;4.70;3.70;;;;;;;6.63;100.00;98471.66;5037322;28;20406;-79
2024/02/01 05:42:43;;;;;;;8.40;4.07;;;;;;;6.54;100.00;98463.16;5037934;28;20403;-79
2024/02/01 05:45:10;;;;;;;4.57;3.65;;;;;;;6.60;100.00;98465.00;5040234;28;20411;-77
2024/02/01 05:47:36;;;;;;;6.32;4.20;;;;;;;6.54;100.00;98457.91;5043280;28;20434;-78
2024/02/01 05:50:04;;;;;;;7.57;4.40;;;;;;;6.58;100.00;98467.00;5044558;28;20498;-76
2024/02/01 05:52:33;;;;;;;5.90;3.92;;;;;;;6.67;100.00;98472.91;5041955;28;20406;-80
2024/02/01 05:55:04;;;;;;;4.47;3.38;;;;;;;6.70;100.00;98481.19;5040412;28;20465;-83
2024/02/01 05:57:31;;;;;;;4.60;3.17;;;;;;;6.72;100.00;98488.91;5050560;28;20410;-81
2024/02/01 05:59:57;;;;;;;3.70;3.00;;;;;;;6.73;100.00;98499.22;5040064;28;20461;-81
2024/02/01 06:02:25;;;;;;;3.40;3.00;;;;;;;6.73;100.00;98495.78;5041198;28;20406;-81
2024/02/01 06:04:51;;;;;;;5.50;3.50;;;;;;;6.71;100.00;98500.44;5049667;28;20490;-82
2024/02/01 06:07:19;;;;;;;4.15;3.20;;;;;;;6.68;100.00;98501.66;5049403;28;20422;-82
2024/02/01 06:09:45;;;;;;;6.32;3.40;;;;;;;6.63;100.00;98503.22;5041150;28;20399;-82
2024/02/01 06:12:11;;;;;;;4.50;3.35;;;;;;;6.57;100.00;98504.84;5040129;28;20499;-82
2024/02/01 06:14:37;;;;;;;4.47;3.17;;;;;;;6.52;100.00;98510.72;5041668;28;20423;-82
2024/02/01 06:17:03;;;;;;;3.20;2.80;;;;;;;6.48;100.00;98514.72;5042708;28;20414;-80
2024/02/01 06:19:30;;;;;;;4.67;3.30;;;;;;;6.43;100.00;98519.78;5038946;28;20403;-80
2024/02/01 06:21:56;;;;;;;3.47;2.80;;;;;;;6.39;100.00;98520.38;5038454;28;20478;-80
2024/02/01 06:24:23;;;;;;;5.65;4.07;;;;;;;6.35;100.00;98524.38;5038812;28;21035;-80
2024/02/01 06:26:50;;;;;;;5.80;3.40;;;;;;;6.30;100.00;98530.25;5038416;28;20461;-80
2024/02/01 06:29:16;;;;;;;5.68;3.33;;;;;;;6.26;100.00;98525.56;5039271;28;20411;-81
2024/02/01 06:31:42;;;;;;;8.98;4.32;;;;;;;6.20;100.00;98530.59;5039216;28;20403;-80
2024/02/01 06:34:11;;;;;;;5.00;3.65;;;;;;;6.16;100.00;98525.94;5039345;28;20411;-80
2024/02/01 06:36:40;;;;;;;6.28;4.05;;;;;;;6.12;100.00;98522.06;5039406;28;20402;-80
2024/02/01 06:41:47;;;;;;;7.75;4.38;;;;;;;6.06;100.00;98530.72;5039025;28;20403;-79
2024/02/01 06:44:26;;;;;;;8.52;4.65;;;;;;;6.04;100.00;98532.72;5039294;28;20399;-80
2024/02/01 06:49:39;;;;;;;6.78;3.95;;;;;;;6.03;100.00;98538.97;5038979;28;20791;-80
2024/02/01 06:55:14;;;;;;;7.63;4.18;;;;;;;6.01;100.00;98547.09;5035106;28;20407;-80
2024/02/01 07:08:45;;;;;;;9.35;5.07;;;;;;;5.93;100.00;98543.78;5036199;28;20409;-81
2024/02/01 07:16:43;;;;;;;12.90;5.82;;;;;;;5.91;100.00;98514.25;5039747;28;20426;-80
2024/02/01 07:19:10;;;;;;;12.50;5.50;;;;;;;5.90;100.00;98518.69;5039770;28;20418;-80
2024/02/01 07:24:38;;;;;;;9.75;5.32;;;;;;;5.91;100.00;98524.78;5039765;28;20429;-80
2024/02/01 08:00:08;;;;;;;9.65;4.63;;;;;;;5.98;100.00;98544.00;5036511;28;20465;-79
2024/02/01 08:08:16;;;;;;;11.90;4.70;;;;;;;5.98;100.00;98546.66;5037412;28;20418;-79
2024/02/01 08:10:44;;;;;;;10.23;4.90;;;;;;;5.99;100.00;98545.66;5037385;28;20438;-79
2024/02/01 08:13:12;;;;;;;8.88;4.60;;;;;;;5.98;100.00;98551.91;5038066;28;20462;-79
2024/02/01 08:15:41;;;;;;;9.88;4.45;;;;;;;5.97;100.00;98540.56;5036786;28;20406;-79
2024/02/01 08:18:09;;;;;;;9.27;4.50;;;;;;;5.99;100.00;98550.91;5037226;28;20395;-79
2024/02/01 08:20:36;;;;;;;10.73;4.22;;;;;;;5.98;100.00;98542.19;5037779;28;20407;-79
2024/02/01 08:23:03;;;;;;;12.63;5.03;;;;;;;5.99;100.00;98556.16;5038187;28;20403;-78
2024/02/01 08:25:30;;;;;;;15.10;4.97;;;;;;;5.99;100.00;98558.78;5037399;28;20453;-79
2024/02/01 08:27:57;;;;;;;12.70;4.80;;;;;;;5.98;100.00;98560.59;5037603;28;20422;-79
2024/02/01 08:30:27;;;;;;;8.15;4.35;;;;;;;5.99;100.00;98561.41;5037140;28;20883;-79
2024/02/01 08:32:57;;;;;;;16.17;4.90;;;;;;;6.02;100.00;98566.25;5037408;28;20406;-79
2024/02/01 08:35:24;;;;;;;7.32;4.45;;;;;;;5.99;100.00;98570.13;5037036;28;20406;-80
2024/02/01 08:37:55;;;;;;;7.90;4.05;;;;;;;6.03;100.00;98568.72;5038093;28;20403;-80
2024/02/01 08:40:22;;;;;;;8.23;4.20;;;;;;;6.06;100.00;98583.28;5036681;28;20395;-79
2024/02/01 08:42:57;;;;;;;9.37;4.30;;;;;;;6.06;100.00;98578.84;5036683;28;20514;-79
2024/02/01 08:45:27;;;;;;;8.57;4.30;;;;;;;6.06;100.00;98578.84;5036665;28;20414;-79
2024/02/01 08:47:55;;;;;;;9.50;4.50;;;;;;;6.06;100.00;98578.84;5036159;28;20513;-79
2024/02/01 08:50:21;;;;;;;10.05;4.90;;;;;;;6.06;100.00;98578.03;5038755;28;20402;-80
2024/02/01 08:52:49;;;;;;;6.40;3.95;;;;;;;6.09;100.00;98582.91;5036850;28;20452;-79
2024/02/01 08:55:16;;;;;;;7.68;4.35;;;;;;;6.10;100.00;98574.00;5036249;28;20399;-80
2024/02/01 08:57:42;;;;;;;8.15;4.43;;;;;;;6.13;100.00;98584.97;5036539;28;20399;-81
2024/02/01 09:03:03;;;;;;;6.57;3.80;;;;;;;6.18;100.00;98582.56;5038418;28;20437;-80
2024/02/01 09:05:30;;;;;;;8.40;4.20;;;;;;;6.19;100.00;98591.25;5046745;28;20399;-79
2024/02/01 09:07:58;;;;;;;6.40;4.00;;;;;;;6.22;100.00;98588.25;5047501;28;20415;-77
2024/02/01 09:10:24;;;;;;;9.35;4.97;;;;;;;6.20;100.00;98595.50;5044276;28;20506;-79
2024/02/01 09:12:50;;;;;;;7.03;4.20;;;;;;;6.20;100.00;98588.44;5035919;28;21004;-80
2024/02/01 09:15:16;;;;;;;7.65;4.47;;;;;;;6.19;100.00;98586.81;5035147;28;20923;-79
2024/02/01 09:17:46;;;;;;;8.60;4.57;;;;;;;6.21;100.00;98594.50;5039013;28;20410;-79
2024/02/01 09:20:17;;;;;;;8.63;5.03;;;;;;;6.23;100.00;98592.50;5041247;28;20406;-80
2024/02/01 09:22:44;;;;;;;7.85;4.82;;;;;;;6.27;100.00;98596.34;5039684;28;20395;-80
2024/02/01 09:25:11;;;;;;;10.18;5.00;;;;;;;6.33;100.00;98595.56;5040800;28;20410;-79
2024/02/01 09:27:38;;;;;;;10.10;4.75;;;;;;;6.40;100.00;98600.88;5040838;28;20496;-77
2024/02/01 09:30:06;;;;;;;6.73;4.40;;;;;;;6.50;100.00;98591.63;5041701;28;20399;-80
2024/02/01 09:32:33;;;;;;;6.18;3.88;;;;;;;6.54;100.00;98592.84;5040406;28;20490;-80
2024/02/01 09:34:59;;;;;;;10.07;4.50;;;;;;;6.56;100.00;98585.56;5039675;28;20875;-79
2024/02/01 09:37:25;;;;;;;6.90;3.80;;;;;;;6.71;100.00;98597.78;5039946;28;20491;-79
2024/02/01 09:39:51;;;;;;;8.70;4.00;;;;;;;6.81;100.00;98598.22;5039245;28;20800;-80
2024/02/01 09:42:19;;;;;;;9.75;3.90;;;;;;;6.85;100.00;98596.81;5039429;28;20403;-80
2024/02/01 09:44:45;;;;;;;6.28;3.47;;;;;;;6.92;100.00;98600.28;5040016;28;20768;-80
2024/02/01 09:47:12;;;;;;;4.35;3.20;;;;;;;6.97;100.00;98611.03;5040465;28;20421;-80
2024/02/01 09:49:40;;;;;;;4.82;2.67;;;;;;;6.95;100.00;98615.69;5039425;28;20403;-80
2024/02/01 09:52:09;;;;;;;5.07;2.97;;;;;;;6.96;100.00;98614.69;5038726;28;20401;-79
2024/02/01 09:54:36;;;;;;;4.95;3.00;;;;;;;6.97;100.00;98619.75;5038614;28;20452;-78
2024/02/01 09:57:13;;;;;;;3.25;2.65;;;;;;;7.00;100.00;98627.25;5037969;28;20403;-79
2024/02/01 09:59:41;;;;;;;2.83;2.50;;;;;;;7.05;100.00;98625.84;5039142;28;20391;-80
2024/02/01 10:02:09;;;;;;;2.42;2.22;;;;;;;7.11;100.00;98636.41;5038599;28;20396;-78
2024/02/01 10:04:35;;;;;;;3.00;2.50;;;;;;;7.14;100.00;98636.00;5039047;28;20405;-79
2024/02/01 10:07:02;;;;;;;2.90;2.47;;;;;;;7.17;100.00;98634.78;5038348;28;20422;-79
2024/02/01 10:09:29;;;;;;;2.92;2.40;;;;;;;7.21;100.00;98636.03;5038544;28;20872;-79
2024/02/01 10:11:55;;;;;;;2.95;2.28;;;;;;;7.27;100.00;98636.03;5038888;28;20395;-78
2024/02/01 10:14:34;;;;;;;3.30;2.65;;;;;;;7.34;100.00;98630.78;5038709;28;20907;-80
2024/02/01 10:17:05;;;;;;;5.00;2.70;;;;;;;7.37;100.00;98631.19;5038887;28;20411;-83
2024/02/01 10:19:32;;;;;;;3.10;2.22;;;;;;;7.43;100.00;98628.78;5038012;28;20406;-83
2024/02/01 10:22:08;;;;;;;4.78;2.55;;;;;;;7.44;100.00;98633.03;5038298;28;20390;-82
2024/02/01 10:24:44;;;;;;;3.00;2.28;;;;;;;7.46;100.00;98639.72;5038502;28;20811;-81
2024/02/01 10:27:11;;;;;;;3.92;2.40;;;;;;;7.47;100.00;98633.44;5033174;28;20411;-82
2024/02/01 10:29:40;;;;;;;3.63;2.50;;;;;;;7.49;100.00;98633.25;5038409;28;20454;-82
2024/02/01 10:32:14;;;;;;;3.10;2.40;;;;;;;7.52;100.00;98627.59;5039426;28;20399;-84
2024/02/01 10:34:50;;;;;;;2.50;2.15;;;;;;;7.60;100.00;98624.72;5038947;28;20407;-83
2024/02/01 10:37:18;;;;;;;2.72;2.10;;;;;;;7.82;100.00;98628.78;5038027;28;20895;-82
2024/02/01 10:39:49;;;;;;;3.53;2.40;;;;;;;8.06;100.00;98630.00;5038906;28;20469;-81
2024/02/01 10:42:21;;;;;;;7.18;3.65;;;;;;;8.19;100.00;98619.47;5037442;28;20443;-82
2024/02/01 10:44:51;;;;;;;5.27;3.17;;;;;;;8.18;100.00;98614.41;5038400;28;20474;-82
2024/02/01 10:47:25;;;;;;;4.45;2.50;;;;;;;8.15;100.00;98611.13;5039876;28;20898;-82
2024/02/01 10:49:53;;;;;;;2.33;1.90;;;;;;;8.07;100.00;98616.63;5039928;28;20418;-80
2024/02/01 10:52:21;;;;;;;1.70;1.60;;;;;;;8.04;100.00;98606.47;5040854;28;20411;-79
2024/02/01 10:54:49;;;;;;;4.90;1.63;;;;;;;7.93;100.00;98606.28;5039262;28;20399;-81
2024/02/01 10:57:16;;;;;;;2.03;1.80;;;;;;;7.88;100.00;98611.38;5037673;28;20800;-81
2024/02/01 10:59:44;;;;;;;1.90;1.70;;;;;;;7.86;100.00;98598.41;5038017;28;20415;-80
2024/02/01 11:02:11;;;;;;;1.60;1.50;;;;;;;7.91;100.00;98600.41;5038759;28;20429;-80
2024/02/01 11:04:39;;;;;;;1.77;1.30;;;;;;;7.96;100.00;98605.91;5038309;28;20664;-80
2024/02/01 11:07:06;;;;;;;1.50;1.40;;;;;;;8.01;100.00;98590.28;5037454;28;20469;-78
2024/02/01 11:09:32;;;;;;;1.50;1.40;;;;;;;8.04;100.00;98601.19;5037892;28;20750;-80
2024/02/01 11:11:58;;;;;;;1.30;1.20;;;;;;;8.08;100.00;98598.97;5038519;28;20438;-80
2024/02/01 11:14:26;;;;;;;2.92;1.65;;;;;;;8.05;100.00;98604.66;5039215;28;20426;-80
2024/02/01 11:16:56;;;;;;;2.38;1.40;;;;;;;8.07;100.00;98606.06;5036173;28;20395;-78
2024/02/01 11:19:24;;;;;;;1.60;1.40;;;;;;;8.25;100.00;98605.44;5037081;28;20445;-80
2024/02/01 11:21:55;;;;;;;1.80;1.50;;;;;;;8.30;100.00;98600.34;5036579;28;20455;-80
2024/02/01 11:24:24;;;;;;;3.27;1.30;;;;;;;8.26;100.00;98601.81;5037125;28;20395;-80
2024/02/01 11:26:55;;;;;;;1.75;1.30;;;;;;;8.22;100.00;98591.84;5037036;28;20833;-80
2024/02/01 11:29:24;;;;;;;1.30;1.20;;;;;;;8.24;100.00;98600.38;5037763;28;20394;-79
2024/02/01 11:31:54;;;;;;;1.35;1.10;;;;;;;8.31;100.00;98602.00;5037016;28;20804;-77
2024/02/01 11:34:22;;;;;;;1.35;1.10;;;;;;;8.39;100.00;98599.16;5035605;28;20394;-81
2024/02/01 11:36:48;;;;;;;1.40;1.30;;;;;;;8.36;100.00;98596.09;5035744;28;20552;-79
2024/02/01 11:39:17;;;;;;;1.15;1.13;;;;;;;8.40;100.00;98594.69;5036991;28;20399;-79
2024/02/01 11:41:46;;;;;;;1.60;1.50;;;;;;;8.37;100.00;98592.47;5036825;28;20875;-80
2024/02/01 11:44:12;;;;;;;1.30;1.20;;;;;;;8.35;100.00;98597.94;5036866;28;20406;-80
2024/02/01 11:46:45;;;;;;;1.50;1.40;;;;;;;8.32;100.00;98573.81;5037077;28;20418;-80
2024/02/01 11:49:16;;;;;;;1.38;1.27;;;;;;;8.37;100.00;98580.06;5036752;28;20800;-78
2024/02/01 11:51:43;;;;;;;1.17;1.17;;;;;;;8.63;100.00;98584.47;5036368;28;20391;-80
2024/02/01 11:54:09;;;;;;;1.90;1.30;;;;;;;8.98;100.00;98586.75;5036498;28;20518;-79
2024/02/01 11:56:38;;;;;;;1.60;1.20;;;;;;;9.27;100.00;98591.44;5035844;28;20473;-80
2024/02/01 11:59:04;;;;;;;1.40;1.30;;;;;;;9.42;100.00;98596.44;5034901;28;20473;-81
2024/02/01 12:01:30;;;;;;;1.40;1.30;;;;;;;9.45;100.00;98598.66;5036521;28;20457;-81
2024/02/01 12:03:58;;;;;;;2.42;1.13;;;;;;;9.40;100.00;98594.00;5037185;28;20423;-80
2024/02/01 12:06:24;;;;;;;1.10;1.10;;;;;;;9.28;100.00;98599.16;5039675;28;20451;-80
2024/02/01 12:08:51;;;;;;;1.50;1.40;;;;;;;9.23;100.00;98598.19;5040629;28;20399;-79
2024/02/01 12:11:19;;;;;;;2.10;1.38;;;;;;;9.12;100.00;98583.81;5038139;28;20395;-81
2024/02/01 12:13:47;;;;;;;1.53;1.40;;;;;;;8.94;100.00;98591.66;5038161;28;20403;-81
2024/02/01 12:16:23;;;;;;;1.33;1.23;;;;;;;8.94;100.00;98591.66;5039672;28;20399;-80
2024/02/01 12:18:50;;;;;;;1.40;1.30;;;;;;;8.92;100.00;98601.59;5036947;28;20410;-80
2024/02/01 12:21:26;;;;;;;1.40;1.30;;;;;;;8.94;100.00;98607.50;5037519;28;20439;-80
2024/02/01 12:23:56;;;;;;;1.53;1.43;;;;;;;8.88;100.00;98593.28;5040138;28;20395;-80
2024/02/01 12:26:23;;;;;;;1.63;1.30;;;;;;;8.83;100.00;98595.75;5040232;28;20395;-80
2024/02/01 12:28:53;;;;;;;1.42;1.33;;;;;;;8.78;100.00;98598.22;5039499;28;20407;-80
2024/02/01 12:31:20;;;;;;;1.90;1.80;;;;;;;8.67;100.00;98588.31;5038602;28;20407;-80
2024/02/01 12:33:47;;;;;;;1.65;1.50;;;;;;;8.61;100.00;98590.97;5038522;28;20465;-81
2024/02/01 12:36:13;;;;;;;1.65;1.50;;;;;;;8.55;100.00;98595.25;5037975;28;20403;-81
2024/02/01 12:38:44;;;;;;;1.90;1.70;;;;;;;8.47;100.00;98591.03;5037913;28;20458;-82
2024/02/01 12:41:11;;;;;;;1.70;1.60;;;;;;;8.45;100.00;98584.31;5039116;28;20399;-81
2024/02/01 12:43:38;;;;;;;1.50;1.40;;;;;;;8.45;100.00;98584.31;5036091;28;20403;-79